Harvest Peace — V7VE7 — position and weather

sailwx.info

Track history (hours):
 
Tides and Currents Weather Stations Pressure Air Temp Water Temp Dewpoint Dewpoint Depression Visibility Wind Speed Wind Dir Waves Ship Positions

Harvest Peace

Last reported at 2014-Sep-05 00:33 UTC. Time now 2014-Sep-19 11:48 UTC.
Position N 35°48' E 032°52'.
Warning: this ship's position is 14 days out of date.

Length 225 m; draft 11.3 m.

Type: Cargo ship. MMSI: 538004103.

Date/timePositionNaut miles runAvg speedWind from/ knotsBaromVisibWave heightAir tempDewpointWater temp
2014-Sep-05 00:33N 35°48' E 032°52'1412.0
2014-Sep-04 23:23N 35°48' E 032°35'29111.7
2014-Sep-03 22:32N 36°08' E 026°36'1211.9
2014-Sep-03 21:33N 36°09' E 026°22'1212.1
2014-Sep-03 20:33N 36°08' E 026°07'1212.4
2014-Sep-03 19:33N 36°08' E 025°52'1212.4
2014-Sep-03 18:33N 36°07' E 025°36'1212.2
2014-Sep-03 17:33N 36°07' E 025°21'1212.2
2014-Sep-03 16:33N 36°07' E 025°06'1212.4
2014-Sep-03 15:33N 36°06' E 024°51'1312.6
2014-Sep-03 14:33N 36°06' E 024°35'1312.5
2014-Sep-03 13:32N 36°05' E 024°20'1212.5
2014-Sep-03 12:33N 36°05' E 024°04'1312.4
2014-Sep-03 11:33N 36°04' E 023°49'44312.2
2014-Sep-01 23:08N 36°26' E 014°40'711.8
2014-Sep-01 22:33N 36°27' E 014°32'1211.8
2014-Sep-01 21:34N 36°30' E 014°18'1111.3
2014-Sep-01 20:33N 36°32' E 014°04'1211.7
2014-Sep-01 19:33N 36°34' E 013°49'9112.2
2014-Sep-01 12:03N 37°01' E 012°00'612.4
2014-Sep-01 11:33N 37°04' E 011°53'2412.3
2014-Sep-01 09:34N 37°16' E 011°26'11412.2
2014-Sep-01 00:12N 37°21' E 009°03'2212.6
2014-Aug-31 22:26N 37°19' E 008°35'1112.5
2014-Aug-31 21:33N 37°18' E 008°21'1612.0
2014-Aug-31 20:14N 37°17' E 008°02'811.9
2014-Aug-31 19:33N 37°16' E 007°51'1212.2
2014-Aug-31 18:33N 37°15' E 007°36'9812.2
2014-Aug-31 10:28N 37°19' E 005°33'1111.7
2014-Aug-31 09:33N 37°20' E 005°19'5312.1
2014-Aug-31 05:10N 37°13' E 004°13'7312.5
2014-Aug-30 23:22N 37°00' E 002°44'1212.9
2014-Aug-30 22:26N 36°58' E 002°29'8812.4
2014-Aug-30 15:20N 36°42' E 000°41'13311.8
2014-Aug-30 04:04N 36°18' W 002°02'911.7
2014-Aug-30 03:17N 36°17' W 002°14'911.9
2014-Aug-30 02:33N 36°15' W 002°24'14312.9
2014-Aug-29 15:29N 35°59' W 005°20'8411.8
2014-Aug-29 08:21N 35°54' W 007°04'2511.4
2014-Aug-29 06:10N 35°55' W 007°35'711.3
2014-Aug-29 05:33N 35°55' W 007°43'1211.7
2014-Aug-29 04:33N 35°56' W 007°58'1111.3
2014-Aug-29 03:33N 35°56' W 008°12'1111.5
2014-Aug-29 02:33N 35°57' W 008°26'1211.7
2014-Aug-29 01:33N 35°57' W 008°40'1311.8
2014-Aug-29 00:26N 35°58' W 008°57'1112.0
2014-Aug-28 23:33N 35°58' W 009°10'1212.1
2014-Aug-28 22:33N 35°59' W 009°25'1211.8
2014-Aug-28 21:31N 35°59' W 009°40'1212.3
2014-Aug-28 20:32N 35°60' W 009°55'1212.1
2014-Aug-28 19:33N 36°00' W 010°09'1211.9
2014-Aug-28 18:33N 36°01' W 010°24'2811.8
2014-Aug-28 16:12N 36°02' W 010°58'6711.7
2014-Aug-28 10:26N 36°04' W 012°22'1411.4
2014-Aug-28 09:15N 36°05' W 012°38'43312.1
2014-Aug-26 21:27N 36°23' W 021°34'1212.5
2014-Aug-26 20:29N 36°24' W 021°49'1312.8
2014-Aug-26 19:30N 36°24' W 022°05'1212.3
2014-Aug-26 18:32N 36°25' W 022°19'1312.3
2014-Aug-26 17:31N 36°25' W 022°35'1212.3
2014-Aug-26 16:33N 36°26' W 022°50'1212.3
2014-Aug-26 15:33N 36°26' W 023°05'1212.2
2014-Aug-26 14:33N 36°27' W 023°20'1212.1
2014-Aug-26 13:34N 36°27' W 023°35'1211.8
2014-Aug-26 12:33N 36°28' W 023°50'1212.2
2014-Aug-26 11:34N 36°28' W 024°05'1212.5
2014-Aug-26 10:34N 36°29' W 024°20'1212.3
2014-Aug-26 09:34N 36°29' W 024°36'1212.0
2014-Aug-26 08:33N 36°30' W 024°51'1211.8
2014-Aug-26 07:33N 36°30' W 025°05'1111.5
2014-Aug-26 06:33N 36°30' W 025°20'1211.9
2014-Aug-26 05:33N 36°30' W 025°34'1211.8
2014-Aug-26 04:33N 36°31' W 025°49'1211.8
2014-Aug-26 03:34N 36°31' W 026°04'1212.1
2014-Aug-26 02:33N 36°31' W 026°19'1211.7
2014-Aug-26 01:33N 36°31' W 026°33'1211.9
2014-Aug-26 00:33N 36°31' W 026°48'  
Track history (hours):
 
Tides and Currents Weather Stations Pressure Air Temp Water Temp Dewpoint Dewpoint Depression Visibility Wind Speed Wind Dir Waves Ship Positions

Harvest Peace

Last reported at 2014-Sep-05 00:33 UTC. Time now 2014-Sep-19 11:48 UTC.
Position N 35°48' E 032°52'.
Warning: this ship's position is 14 days out of date.

Length 225 m; draft 11.3 m.

Type: Cargo ship. MMSI: 538004103.

Date/timePositionNaut miles runAvg speedWind from/ knotsBaromVisibWave heightAir tempDewpointWater temp
2014-Sep-05 00:33N 35°48' E 032°52'1412.0
2014-Sep-04 23:23N 35°48' E 032°35'29111.7
2014-Sep-03 22:32N 36°08' E 026°36'1211.9
2014-Sep-03 21:33N 36°09' E 026°22'1212.1
2014-Sep-03 20:33N 36°08' E 026°07'1212.4
2014-Sep-03 19:33N 36°08' E 025°52'1212.4
2014-Sep-03 18:33N 36°07' E 025°36'1212.2
2014-Sep-03 17:33N 36°07' E 025°21'1212.2
2014-Sep-03 16:33N 36°07' E 025°06'1212.4
2014-Sep-03 15:33N 36°06' E 024°51'1312.6
2014-Sep-03 14:33N 36°06' E 024°35'1312.5
2014-Sep-03 13:32N 36°05' E 024°20'1212.5
2014-Sep-03 12:33N 36°05' E 024°04'1312.4
2014-Sep-03 11:33N 36°04' E 023°49'44312.2
2014-Sep-01 23:08N 36°26' E 014°40'711.8
2014-Sep-01 22:33N 36°27' E 014°32'1211.8
2014-Sep-01 21:34N 36°30' E 014°18'1111.3
2014-Sep-01 20:33N 36°32' E 014°04'1211.7
2014-Sep-01 19:33N 36°34' E 013°49'9112.2
2014-Sep-01 12:03N 37°01' E 012°00'612.4
2014-Sep-01 11:33N 37°04' E 011°53'2412.3
2014-Sep-01 09:34N 37°16' E 011°26'11412.2
2014-Sep-01 00:12N 37°21' E 009°03'2212.6
2014-Aug-31 22:26N 37°19' E 008°35'1112.5
2014-Aug-31 21:33N 37°18' E 008°21'1612.0
2014-Aug-31 20:14N 37°17' E 008°02'811.9
2014-Aug-31 19:33N 37°16' E 007°51'1212.2
2014-Aug-31 18:33N 37°15' E 007°36'9812.2
2014-Aug-31 10:28N 37°19' E 005°33'1111.7
2014-Aug-31 09:33N 37°20' E 005°19'5312.1
2014-Aug-31 05:10N 37°13' E 004°13'7312.5
2014-Aug-30 23:22N 37°00' E 002°44'1212.9
2014-Aug-30 22:26N 36°58' E 002°29'8812.4
2014-Aug-30 15:20N 36°42' E 000°41'13311.8
2014-Aug-30 04:04N 36°18' W 002°02'911.7
2014-Aug-30 03:17N 36°17' W 002°14'911.9
2014-Aug-30 02:33N 36°15' W 002°24'14312.9
2014-Aug-29 15:29N 35°59' W 005°20'8411.8
2014-Aug-29 08:21N 35°54' W 007°04'2511.4
2014-Aug-29 06:10N 35°55' W 007°35'711.3
2014-Aug-29 05:33N 35°55' W 007°43'1211.7
2014-Aug-29 04:33N 35°56' W 007°58'1111.3
2014-Aug-29 03:33N 35°56' W 008°12'1111.5
2014-Aug-29 02:33N 35°57' W 008°26'1211.7
2014-Aug-29 01:33N 35°57' W 008°40'1311.8
2014-Aug-29 00:26N 35°58' W 008°57'1112.0
2014-Aug-28 23:33N 35°58' W 009°10'1212.1
2014-Aug-28 22:33N 35°59' W 009°25'1211.8
2014-Aug-28 21:31N 35°59' W 009°40'1212.3
2014-Aug-28 20:32N 35°60' W 009°55'1212.1
2014-Aug-28 19:33N 36°00' W 010°09'1211.9
2014-Aug-28 18:33N 36°01' W 010°24'2811.8
2014-Aug-28 16:12N 36°02' W 010°58'6711.7
2014-Aug-28 10:26N 36°04' W 012°22'1411.4
2014-Aug-28 09:15N 36°05' W 012°38'43312.1
2014-Aug-26 21:27N 36°23' W 021°34'1212.5
2014-Aug-26 20:29N 36°24' W 021°49'1312.8
2014-Aug-26 19:30N 36°24' W 022°05'1212.3
2014-Aug-26 18:32N 36°25' W 022°19'1312.3
2014-Aug-26 17:31N 36°25' W 022°35'1212.3
2014-Aug-26 16:33N 36°26' W 022°50'1212.3
2014-Aug-26 15:33N 36°26' W 023°05'1212.2
2014-Aug-26 14:33N 36°27' W 023°20'1212.1
2014-Aug-26 13:34N 36°27' W 023°35'1211.8
2014-Aug-26 12:33N 36°28' W 023°50'1212.2
2014-Aug-26 11:34N 36°28' W 024°05'1212.5
2014-Aug-26 10:34N 36°29' W 024°20'1212.3
2014-Aug-26 09:34N 36°29' W 024°36'1212.0
2014-Aug-26 08:33N 36°30' W 024°51'1211.8
2014-Aug-26 07:33N 36°30' W 025°05'1111.5
2014-Aug-26 06:33N 36°30' W 025°20'1211.9
2014-Aug-26 05:33N 36°30' W 025°34'1211.8
2014-Aug-26 04:33N 36°31' W 025°49'1211.8
2014-Aug-26 03:34N 36°31' W 026°04'1212.1
2014-Aug-26 02:33N 36°31' W 026°19'1211.7
2014-Aug-26 01:33N 36°31' W 026°33'1211.9
2014-Aug-26 00:33N 36°31' W 026°48'  

Dump ship's entire track history